Time;durP1;ratioP1;P1;durP2;ratioP2;P2;SDS_P1;SDS_P2;PMS_P1;PMS_P2;Temp;Humidity;BMP_temperature;BMP_pressure;BME280_temperature;BME280_humidity;BME280_pressure;Samples;Min_cycle;Max_cycle;Signal;HPM_P1;HPM_P2
2022/11/29 00:01:09;;;;;;;12.20;7.03;;;;;;;4.37;71.19;101841.92;1681538;84;21806;-49
2022/11/29 00:03:36;;;;;;;13.50;7.25;;;;;;;4.36;71.12;101848.89;1660189;84;21056;-49
2022/11/29 00:06:09;;;;;;;7.87;3.60;;;;;;;4.32;71.00;101847.72;1681831;84;21280;-49
2022/11/29 00:08:36;;;;;;;7.70;3.45;;;;;;;4.26;70.88;101847.47;1678623;83;21069;-49
2022/11/29 00:11:13;;;;;;;8.40;4.03;;;;;;;4.18;71.01;101853.36;1681946;83;21070;-49
2022/11/29 00:13:39;;;;;;;11.70;6.87;;;;;;;4.13;71.05;101846.97;1682618;83;21197;-49
2022/11/29 00:16:09;;;;;;;6.97;2.77;;;;;;;4.10;70.98;101844.45;1681833;83;21101;-49
2022/11/29 00:18:35;;;;;;;6.28;2.42;;;;;;;4.14;70.90;101848.69;1685490;83;21043;-48
2022/11/29 00:21:06;;;;;;;12.90;3.30;;;;;;;4.20;70.88;101838.09;1684748;83;21035;-49
2022/11/29 00:23:34;;;;;;;12.33;7.22;;;;;;;4.22;70.86;101845.84;1683333;83;21031;-49
2022/11/29 00:26:05;;;;;;;14.03;7.67;;;;;;;4.24;71.02;101837.09;1684252;83;21265;-49
2022/11/29 00:28:33;;;;;;;6.50;3.30;;;;;;;4.22;70.91;101834.98;1680066;83;21549;-49
2022/11/29 00:30:59;;;;;;;12.65;7.28;;;;;;;4.19;70.94;101836.84;1681890;83;21714;-49
2022/11/29 00:33:26;;;;;;;7.92;3.67;;;;;;;4.14;71.00;101838.27;1684293;83;21596;-49
2022/11/29 00:35:52;;;;;;;8.03;3.50;;;;;;;4.08;71.02;101839.31;1684422;84;21054;-49
2022/11/29 00:38:19;;;;;;;6.62;3.30;;;;;;;4.06;71.11;101841.55;1684771;83;21217;-49
2022/11/29 00:40:51;;;;;;;11.22;7.10;;;;;;;4.02;71.24;101840.79;1688848;84;21067;-49
2022/11/29 00:43:18;;;;;;;8.73;3.58;;;;;;;4.00;71.28;101838.69;1683725;83;21059;-49
2022/11/29 00:45:44;;;;;;;13.00;6.90;;;;;;;4.01;71.21;101839.06;1679997;84;21086;-50
2022/11/29 00:48:11;;;;;;;7.00;2.55;;;;;;;4.06;71.02;101842.84;1685554;84;21031;-49
2022/11/29 00:50:37;;;;;;;6.92;3.20;;;;;;;4.11;71.04;101842.72;1680771;83;21247;-48
2022/11/29 00:53:04;;;;;;;14.35;7.22;;;;;;;4.18;71.06;101849.45;1685097;83;21174;-50
2022/11/29 00:55:30;;;;;;;7.12;3.02;;;;;;;4.21;70.94;101840.24;1674761;84;21047;-56
2022/11/29 00:57:57;;;;;;;10.55;4.22;;;;;;;4.20;71.02;101842.44;1681612;84;21063;-55
2022/11/29 01:00:23;;;;;;;16.30;8.05;;;;;;;4.18;71.01;101850.30;1670673;84;21086;-49
2022/11/29 01:02:50;;;;;;;7.33;3.58;;;;;;;4.16;70.98;101845.58;1686473;83;21182;-49
2022/11/29 01:05:17;;;;;;;13.88;8.20;;;;;;;4.13;70.98;101845.67;1689348;84;21047;-50
2022/11/29 01:07:43;;;;;;;13.38;8.05;;;;;;;4.08;71.00;101839.75;1684978;83;21027;-50
2022/11/29 01:10:10;;;;;;;9.15;3.00;;;;;;;4.05;71.12;101842.44;1687364;83;21077;-49
2022/11/29 01:12:37;;;;;;;8.65;3.45;;;;;;;4.05;71.10;101836.80;1690291;84;21090;-48
2022/11/29 01:15:06;;;;;;;9.63;3.52;;;;;;;4.12;70.94;101832.26;1689144;84;21307;-49
2022/11/29 01:17:36;;;;;;;13.10;7.58;;;;;;;4.16;70.71;101842.98;1680801;84;21248;-49
2022/11/29 01:20:05;;;;;;;8.35;2.95;;;;;;;4.18;70.81;101834.66;1690304;83;21530;-49
2022/11/29 01:22:34;;;;;;;14.05;6.37;;;;;;;4.20;70.85;101828.10;1680929;83;21122;-49
2022/11/29 01:25:00;;;;;;;7.12;2.52;;;;;;;4.17;70.79;101829.06;1620906;86;21051;-49
2022/11/29 01:27:28;;;;;;;13.98;7.60;;;;;;;4.13;70.76;101832.64;1612338;87;21825;-49
2022/11/29 01:29:55;;;;;;;10.93;4.47;;;;;;;4.06;70.82;101832.43;1617500;88;21099;-49
2022/11/29 01:32:21;;;;;;;10.28;3.87;;;;;;;4.02;70.85;101834.28;1615510;88;21186;-49
2022/11/29 01:34:47;;;;;;;8.13;3.67;;;;;;;3.95;70.94;101831.45;1616581;86;21096;-49
2022/11/29 01:37:15;;;;;;;9.00;3.42;;;;;;;3.88;70.93;101839.02;1623252;88;21091;-49
2022/11/29 01:39:42;;;;;;;6.60;3.45;;;;;;;3.81;71.05;101840.94;1624598;86;21257;-49
2022/11/29 01:42:11;;;;;;;7.22;2.60;;;;;;;3.79;71.11;101836.69;1622771;88;21159;-48
2022/11/29 01:44:55;;;;;;;7.30;3.08;;;;;;;3.86;71.03;101829.95;1616177;86;21072;-48
2022/11/29 01:47:21;;;;;;;12.47;6.72;;;;;;;3.94;70.89;101833.64;1617848;88;21168;-48
2022/11/29 01:49:48;;;;;;;7.85;2.92;;;;;;;4.02;70.99;101828.22;1619690;88;21102;-50
2022/11/29 01:52:20;;;;;;;12.30;6.50;;;;;;;4.07;70.88;101832.84;1620308;88;21175;-49
2022/11/29 01:54:50;;;;;;;8.80;2.75;;;;;;;4.07;70.89;101832.39;1669241;84;21047;-49
2022/11/29 01:57:17;;;;;;;6.40;2.52;;;;;;;4.04;70.84;101829.02;1675991;84;21186;-51
2022/11/29 01:59:48;;;;;;;11.70;6.45;;;;;;;4.01;70.89;101809.58;1673170;84;21074;-48
2022/11/29 02:02:28;;;;;;;8.13;2.98;;;;;;;3.98;70.83;101809.20;1611212;88;21552;-49
2022/11/29 02:04:57;;;;;;;8.30;3.87;;;;;;;3.92;70.80;101815.91;1609476;87;21259;-49
2022/11/29 02:07:24;;;;;;;9.48;3.47;;;;;;;3.84;70.76;101827.84;1616867;88;21166;-48
2022/11/29 02:09:50;;;;;;;8.60;4.30;;;;;;;3.80;70.82;101825.36;1620191;86;21143;-48
2022/11/29 02:12:50;;;;;;;9.35;5.37;;;;;;;3.74;70.89;101824.25;1619856;88;21171;-48
2022/11/29 02:15:44;;;;;;;5.87;2.95;;;;;;;3.73;70.84;101825.98;1616941;86;21100;-48
2022/11/29 02:18:21;;;;;;;7.53;2.22;;;;;;;3.77;70.61;101825.02;1623946;88;21637;-48
2022/11/29 02:20:56;;;;;;;8.20;2.62;;;;;;;3.80;70.56;101832.75;1597839;87;21107;-48
2022/11/29 02:23:28;;;;;;;6.50;2.40;;;;;;;3.82;70.58;101836.16;1623320;88;21136;-48
2022/11/29 02:26:29;;;;;;;7.83;4.83;;;;;;;3.85;70.64;101837.80;1625342;86;21053;-48
2022/11/29 02:29:50;;;;;;;7.35;2.52;;;;;;;3.85;70.73;101833.47;1600882;88;21064;-48
2022/11/29 02:32:49;;;;;;;6.08;2.33;;;;;;;3.81;70.40;101835.73;1623584;86;21250;-47
2022/11/29 02:35:30;;;;;;;8.73;3.75;;;;;;;3.69;70.25;101843.91;1618337;86;21103;-49
2022/11/29 02:38:41;;;;;;;10.25;5.70;;;;;;;3.58;70.32;101845.94;1621458;86;21562;-48
2022/11/29 02:41:57;;;;;;;5.85;2.75;;;;;;;3.49;70.34;101845.30;1649295;85;21067;-49
2022/11/29 02:45:07;;;;;;;6.87;1.85;;;;;;;3.43;70.54;101849.38;1638486;86;21120;-48
2022/11/29 03:11:44;;;;;;;5.37;1.80;;;;;;;4.09;68.42;101829.73;1759926;79;22717;-48
2022/11/29 03:14:25;;;;;;;5.87;2.12;;;;;;;3.94;68.36;101832.34;1759028;81;21066;-49
2022/11/29 03:17:33;;;;;;;5.33;1.95;;;;;;;3.77;68.36;101840.64;1763619;79;21273;-49
2022/11/29 03:20:21;;;;;;;7.58;2.25;;;;;;;3.65;68.35;101842.30;1763660;79;22226;-50
2022/11/29 03:23:22;;;;;;;5.62;1.75;;;;;;;3.51;68.63;101846.55;1754562;80;20974;-50
2022/11/29 03:26:00;;;;;;;5.25;1.67;;;;;;;3.44;68.85;101851.52;1756610;79;21085;-49
2022/11/29 03:28:44;;;;;;;5.33;1.70;;;;;;;3.42;68.79;101853.33;1757191;80;22286;-49
2022/11/29 03:31:31;;;;;;;5.47;1.98;;;;;;;3.45;68.61;101858.45;1766148;81;21950;-50
2022/11/29 03:34:38;;;;;;;5.80;2.37;;;;;;;3.49;68.70;101860.91;1756035;80;20985;-50
2022/11/29 03:37:20;;;;;;;4.37;1.57;;;;;;;3.53;68.84;101859.95;1754405;81;27348;-49
2022/11/29 03:40:07;;;;;;;6.67;3.83;;;;;;;3.54;68.96;101859.03;1732602;81;21122;-49
2022/11/29 03:42:48;;;;;;;7.05;4.15;;;;;;;3.50;68.91;101852.22;1757093;80;22226;-49
2022/11/29 03:45:33;;;;;;;4.30;1.70;;;;;;;3.45;68.86;101867.56;1752378;81;21243;-49
2022/11/29 03:48:08;;;;;;;5.40;1.62;;;;;;;3.40;68.90;101871.58;1743263;80;21086;-49
2022/11/29 03:50:48;;;;;;;5.20;1.45;;;;;;;3.32;68.87;101874.82;1740872;80;21109;-50
2022/11/29 03:53:53;;;;;;;4.62;1.57;;;;;;;3.21;68.87;101871.20;1753629;80;21547;-51
2022/11/29 03:56:35;;;;;;;4.97;0.90;;;;;;;3.16;69.19;101875.64;1756283;79;21021;-53
2022/11/29 03:59:37;;;;;;;4.83;1.32;;;;;;;3.15;69.20;101872.20;1749951;80;21811;-51
2022/11/29 04:02:18;;;;;;;5.00;1.80;;;;;;;3.23;69.21;101872.02;1727930;82;21489;-50
2022/11/29 04:05:36;;;;;;;3.75;1.25;;;;;;;3.30;69.06;101876.16;1729564;81;21011;-47
2022/11/29 04:08:20;;;;;;;8.35;1.98;;;;;;;3.36;69.04;101877.73;1757530;79;21067;-48
2022/11/29 04:10:58;;;;;;;3.55;1.12;;;;;;;3.37;69.12;101872.95;1750442;80;21059;-52
2022/11/29 04:13:53;;;;;;;5.60;1.55;;;;;;;3.36;69.05;101872.53;1754388;80;21164;-53
2022/11/29 04:16:31;;;;;;;4.37;1.60;;;;;;;3.33;68.99;101877.84;1757490;80;21085;-53
2022/11/29 04:19:46;;;;;;;4.10;1.30;;;;;;;3.30;68.97;101870.11;1754725;81;21128;-53
2022/11/29 04:22:37;;;;;;;3.80;1.30;;;;;;;3.26;68.97;101865.86;1750442;79;21107;-54
2022/11/29 04:25:39;;;;;;;3.85;1.70;;;;;;;3.22;69.06;101881.16;1755104;80;21507;-50
2022/11/29 04:28:49;;;;;;;4.75;1.30;;;;;;;3.18;68.96;101879.50;1734497;81;21166;-51
2022/11/29 04:31:44;;;;;;;5.03;1.30;;;;;;;3.12;68.82;101880.06;1733282;81;21070;-48
2022/11/29 04:34:27;;;;;;;4.80;1.30;;;;;;;3.07;69.01;101877.19;1748801;80;21034;-48
2022/11/29 04:37:34;;;;;;;4.33;1.25;;;;;;;3.12;68.99;101881.83;1748958;81;21059;-48
2022/11/29 04:40:28;;;;;;;4.35;1.27;;;;;;;3.23;68.92;101876.34;1750875;80;21388;-48
2022/11/29 04:43:34;;;;;;;4.47;1.90;;;;;;;3.31;68.76;101880.48;1756068;81;21297;-49
2022/11/29 04:46:36;;;;;;;5.17;1.25;;;;;;;3.37;68.74;101884.66;1749476;81;21102;-48
2022/11/29 04:49:34;;;;;;;3.35;0.98;;;;;;;3.38;68.77;101881.60;1715763;81;21334;-48
2022/11/29 04:52:52;;;;;;;4.03;1.40;;;;;;;3.35;68.67;101879.49;1757418;79;21514;-48
2022/11/29 04:55:27;;;;;;;5.12;1.02;;;;;;;3.33;68.76;101883.05;1759057;80;21054;-47
2022/11/29 04:58:38;;;;;;;5.03;1.05;;;;;;;3.30;68.77;101883.96;1758110;80;21251;-47
2022/11/29 05:01:39;;;;;;;4.05;1.25;;;;;;;3.26;68.71;101879.75;1760097;81;21050;-53
2022/11/29 05:04:22;;;;;;;7.00;1.80;;;;;;;3.21;68.81;101880.73;1760474;80;21054;-51
2022/11/29 05:07:36;;;;;;;5.22;1.92;;;;;;;3.16;68.77;101876.52;1757417;81;21027;-50
2022/11/29 05:10:22;;;;;;;4.92;2.15;;;;;;;3.15;68.65;101881.30;1757627;80;21067;-49
2022/11/29 05:13:12;;;;;;;3.77;1.40;;;;;;;3.20;68.56;101886.84;1748760;80;21291;-49
2022/11/29 05:16:19;;;;;;;3.00;1.30;;;;;;;3.25;68.55;101890.19;1747429;80;21056;-49
2022/11/29 05:19:11;;;;;;;4.30;1.30;;;;;;;3.31;68.64;101894.79;1745933;81;21582;-49
2022/11/29 05:22:02;;;;;;;5.40;2.12;;;;;;;3.31;68.68;101905.63;1740121;81;21062;-49
2022/11/29 05:24:52;;;;;;;6.40;2.52;;;;;;;3.31;68.88;101906.92;1732750;81;21620;-49
2022/11/29 05:27:45;;;;;;;4.12;1.45;;;;;;;3.25;68.67;101910.55;1734725;81;21133;-49
2022/11/29 05:30:16;;;;;;;5.75;2.12;;;;;;;3.20;68.79;101910.26;1735647;82;21086;-49
2022/11/29 05:33:18;;;;;;;4.62;1.65;;;;;;;3.15;68.83;101913.81;1737485;81;21070;-49
2022/11/29 05:35:59;;;;;;;5.95;2.42;;;;;;;3.11;68.90;101916.09;1735692;81;21565;-48
2022/11/29 05:38:58;;;;;;;4.42;1.87;;;;;;;3.07;68.87;101918.34;1702226;81;21620;-50
2022/11/29 05:42:13;;;;;;;6.47;2.80;;;;;;;3.02;68.96;101918.05;1734520;82;21159;-48
2022/11/29 05:44:53;;;;;;;4.30;1.35;;;;;;;2.99;69.13;101916.37;1719045;81;21018;-50
2022/11/29 05:47:37;;;;;;;5.40;1.87;;;;;;;3.07;69.09;101927.45;1734038;81;21614;-50
2022/11/29 05:50:36;;;;;;;5.12;1.92;;;;;;;3.14;69.02;101931.63;1739835;81;21114;-48
2022/11/29 05:53:30;;;;;;;6.97;2.22;;;;;;;3.21;69.02;101939.27;1732912;81;21539;-48
2022/11/29 05:56:11;;;;;;;6.62;2.00;;;;;;;3.28;68.97;101943.45;1740107;81;22167;-48
2022/11/29 05:58:43;;;;;;;7.70;2.75;;;;;;;3.29;69.04;101951.64;1738777;81;21612;-49
2022/11/29 06:01:26;;;;;;;7.37;2.77;;;;;;;3.29;69.05;101947.73;1736620;81;21577;-49
2022/11/29 06:04:07;;;;;;;6.17;2.50;;;;;;;3.30;68.99;101942.95;1728197;82;21548;-48
2022/11/29 06:06:45;;;;;;;6.58;3.15;;;;;;;3.28;68.75;101942.15;1730050;81;21119;-49
2022/11/29 06:09:29;;;;;;;6.58;2.67;;;;;;;3.22;68.60;101953.54;1735003;81;21256;-48
2022/11/29 06:12:04;;;;;;;9.25;5.60;;;;;;;3.16;68.64;101965.37;1735447;82;21101;-49
2022/11/29 06:15:29;;;;;;;7.03;3.05;;;;;;;3.10;68.61;101969.45;1709785;81;21065;-48
2022/11/29 06:18:21;;;;;;;8.58;5.60;;;;;;;3.09;68.68;101975.52;1736993;81;21165;-48
2022/11/29 06:21:22;;;;;;;5.20;1.90;;;;;;;3.18;68.60;101975.75;1734812;81;21197;-48
2022/11/29 06:24:09;;;;;;;6.65;2.10;;;;;;;3.27;68.57;101984.66;1737618;81;21251;-50
2022/11/29 06:27:12;;;;;;;8.23;2.72;;;;;;;3.30;68.51;101981.98;1730231;81;21047;-48
2022/11/29 06:30:02;;;;;;;5.60;3.00;;;;;;;3.27;68.56;101979.45;1746332;81;21047;-49
2022/11/29 06:33:00;;;;;;;7.50;3.15;;;;;;;3.27;68.73;101983.35;1738234;81;21105;-48
2022/11/29 06:35:50;;;;;;;8.23;3.52;;;;;;;3.27;68.77;101980.75;1737846;81;21117;-47
2022/11/29 06:38:26;;;;;;;6.22;2.50;;;;;;;3.25;68.63;101981.24;1705353;81;21233;-48
2022/11/29 06:40:54;;;;;;;8.10;3.50;;;;;;;3.17;68.50;101982.71;1732684;81;21079;-49
2022/11/29 06:43:22;;;;;;;6.67;2.87;;;;;;;3.12;68.56;101985.86;1739288;81;21566;-49
2022/11/29 06:45:56;;;;;;;9.65;3.52;;;;;;;3.07;68.58;101980.77;1739806;82;21099;-49
2022/11/29 06:48:27;;;;;;;7.70;3.02;;;;;;;3.06;68.73;101988.17;1740253;81;21039;-50
2022/11/29 06:51:00;;;;;;;7.03;3.95;;;;;;;3.03;68.72;101984.34;1741545;81;21183;-48
2022/11/29 06:53:47;;;;;;;8.15;4.05;;;;;;;3.03;68.72;101980.44;1735491;81;21155;-48
2022/11/29 06:56:42;;;;;;;8.20;3.58;;;;;;;3.11;68.66;101984.14;1737230;81;21062;-49
2022/11/29 06:59:34;;;;;;;8.33;3.83;;;;;;;3.21;68.62;101975.69;1736668;81;21075;-48
2022/11/29 07:02:42;;;;;;;8.65;2.92;;;;;;;3.28;68.62;101983.31;1735406;81;21611;-48
2022/11/29 07:05:27;;;;;;;11.75;6.72;;;;;;;3.28;68.44;101981.17;1736656;81;21158;-49
2022/11/29 07:07:58;;;;;;;7.22;3.67;;;;;;;3.20;68.40;101987.00;1733650;81;21067;-49
2022/11/29 07:10:25;;;;;;;6.95;3.12;;;;;;;3.15;68.65;101987.10;1719684;81;21183;-48
2022/11/29 07:12:53;;;;;;;9.73;4.33;;;;;;;3.12;68.78;101994.52;1757905;80;21415;-57
2022/11/29 07:15:21;;;;;;;7.22;3.90;;;;;;;3.11;68.88;101991.52;1759620;79;21436;-56
2022/11/29 07:18:19;;;;;;;13.80;7.60;;;;;;;3.08;68.91;101989.44;1752987;81;21960;-56
2022/11/29 07:21:09;;;;;;;9.38;2.98;;;;;;;3.07;68.90;102002.02;1758135;80;21074;-56
2022/11/29 07:23:56;;;;;;;6.33;3.02;;;;;;;3.12;68.87;101994.52;1757962;79;21508;-56
2022/11/29 07:26:58;;;;;;;10.75;4.70;;;;;;;3.21;68.67;101994.77;1753527;79;21066;-56
2022/11/29 07:29:50;;;;;;;8.40;4.28;;;;;;;3.28;68.65;102000.69;1760480;81;21081;-56
2022/11/29 07:32:38;;;;;;;12.65;3.67;;;;;;;3.37;68.78;102002.20;1759524;81;21262;-56
2022/11/29 07:35:27;;;;;;;8.55;4.47;;;;;;;3.40;68.86;102002.14;1744777;81;21111;-57
2022/11/29 07:38:26;;;;;;;8.90;3.27;;;;;;;3.39;68.76;101999.11;1725757;80;21113;-56
2022/11/29 07:41:16;;;;;;;9.25;3.55;;;;;;;3.34;68.77;101992.26;1750708;81;21095;-55
2022/11/29 07:44:20;;;;;;;10.03;3.85;;;;;;;3.31;68.75;101994.08;1758738;80;21038;-56
2022/11/29 07:46:47;;;;;;;11.05;3.67;;;;;;;3.25;68.66;102000.30;1757393;79;22148;-56
2022/11/29 07:49:14;;;;;;;7.53;3.22;;;;;;;3.15;68.76;102001.41;1756375;80;20995;-55
2022/11/29 07:51:40;;;;;;;11.10;3.87;;;;;;;3.08;68.75;101999.84;1746240;80;21109;-55
2022/11/29 07:54:08;;;;;;;11.75;4.03;;;;;;;3.06;68.73;101998.58;1756344;79;21101;-55
2022/11/29 07:56:36;;;;;;;10.60;3.80;;;;;;;3.13;68.73;101996.69;1752570;80;21022;-56
2022/11/29 07:59:02;;;;;;;10.70;3.45;;;;;;;3.20;68.67;101997.41;1752990;81;21218;-57
2022/11/29 08:01:30;;;;;;;8.50;3.87;;;;;;;3.23;68.65;101998.19;1752451;80;21133;-55
2022/11/29 08:03:56;;;;;;;11.30;4.75;;;;;;;3.24;68.71;102001.17;1732551;80;21070;-55
2022/11/29 08:06:24;;;;;;;15.20;8.30;;;;;;;3.22;68.72;101987.36;1749286;80;21082;-55
2022/11/29 08:08:51;;;;;;;11.78;4.83;;;;;;;3.22;68.75;101992.56;1755135;79;21066;-55
2022/11/29 08:11:17;;;;;;;15.10;8.40;;;;;;;3.23;68.78;101988.20;1754945;80;21237;-55
2022/11/29 08:13:44;;;;;;;9.35;4.30;;;;;;;3.23;68.65;101985.60;1752718;80;21121;-56
2022/11/29 08:16:17;;;;;;;14.15;8.23;;;;;;;3.20;68.58;101987.84;1754767;81;21085;-54
2022/11/29 08:18:44;;;;;;;11.30;4.80;;;;;;;3.16;68.60;101985.77;1745401;81;21070;-56
2022/11/29 08:21:11;;;;;;;11.60;3.90;;;;;;;3.18;68.67;101980.95;1754589;81;21132;-56
2022/11/29 08:23:37;;;;;;;13.83;5.62;;;;;;;3.26;68.65;101976.00;1750673;81;21228;-56
2022/11/29 08:26:04;;;;;;;7.80;3.62;;;;;;;3.35;68.41;101965.81;1744262;81;21050;-56
2022/11/29 08:28:31;;;;;;;11.57;4.65;;;;;;;3.38;68.23;101963.14;1748080;81;21082;-56
2022/11/29 08:31:06;;;;;;;9.60;4.37;;;;;;;3.36;68.24;101968.80;1756192;81;21347;-56
2022/11/29 08:33:40;;;;;;;11.70;4.60;;;;;;;3.34;68.29;101983.61;1751794;81;21063;-56
2022/11/29 08:36:12;;;;;;;14.23;8.60;;;;;;;3.32;68.35;101988.00;1748229;81;22373;-56
2022/11/29 08:38:39;;;;;;;11.90;5.03;;;;;;;3.31;68.46;101970.23;1746237;81;21015;-56
2022/11/29 08:41:07;;;;;;;10.35;4.12;;;;;;;3.34;68.37;101964.09;1761206;81;20994;-56
2022/11/29 08:43:34;;;;;;;17.48;9.85;;;;;;;3.29;68.21;101970.70;1761120;81;21026;-56
2022/11/29 08:46:01;;;;;;;10.23;4.08;;;;;;;3.27;68.28;101970.34;1758228;81;21027;-56
2022/11/29 08:48:28;;;;;;;7.50;4.12;;;;;;;3.29;68.17;101968.55;1754960;81;21293;-56
2022/11/29 08:50:54;;;;;;;13.70;4.08;;;;;;;3.34;67.86;101961.48;1761310;81;21038;-56
2022/11/29 08:53:40;;;;;;;13.48;4.60;;;;;;;3.41;67.80;101972.15;1745313;81;21578;-56
2022/11/29 08:56:12;;;;;;;9.60;4.50;;;;;;;3.45;67.75;101967.30;1758211;81;21054;-57
2022/11/29 08:58:39;;;;;;;17.07;9.28;;;;;;;3.45;67.59;101963.39;1759904;81;21137;-54
2022/11/29 09:01:17;;;;;;;12.45;4.62;;;;;;;3.43;67.57;101969.09;1752068;81;21245;-55
2022/11/29 09:04:05;;;;;;;11.88;5.10;;;;;;;3.42;67.62;101966.06;1749793;81;21003;-56
2022/11/29 09:06:38;;;;;;;8.50;4.12;;;;;;;3.38;67.34;101963.56;1757457;81;21038;-56
2022/11/29 09:09:05;;;;;;;10.50;4.15;;;;;;;3.30;67.36;101965.92;1764386;80;21039;-56
2022/11/29 09:11:33;;;;;;;17.30;9.23;;;;;;;3.22;67.43;101965.25;1754918;81;21003;-56
2022/11/29 09:14:02;;;;;;;9.30;4.12;;;;;;;3.18;67.48;101968.83;1733932;82;21282;-56
2022/11/29 09:16:32;;;;;;;10.13;3.72;;;;;;;3.18;67.35;101962.32;1790086;80;21085;-56
2022/11/29 09:18:58;;;;;;;10.08;4.30;;;;;;;3.25;67.19;101964.33;1790443;80;21116;-56
2022/11/29 09:21:26;;;;;;;7.60;3.47;;;;;;;3.32;67.07;101957.62;1772808;80;22832;-57
2022/11/29 09:23:57;;;;;;;9.53;4.58;;;;;;;3.35;66.98;101947.14;1757034;80;21125;-56
2022/11/29 09:26:21;;;;;;;13.20;7.87;;;;;;;3.35;66.91;101944.54;1761869;80;21294;-56
2022/11/29 09:28:50;;;;;;;9.33;5.42;;;;;;;3.35;67.05;101948.45;1759535;80;21070;-56
2022/11/29 09:31:16;;;;;;;9.65;4.85;;;;;;;3.37;66.93;101951.02;1739330;81;21108;-56
2022/11/29 09:33:44;;;;;;;10.03;5.22;;;;;;;3.36;66.93;101947.98;1732134;81;21022;-56
2022/11/29 09:36:11;;;;;;;8.70;4.95;;;;;;;3.34;66.88;101937.62;1764068;81;21097;-56
2022/11/29 09:38:38;;;;;;;12.43;5.78;;;;;;;3.31;66.84;101936.84;1761844;80;21132;-58
2022/11/29 09:41:27;;;;;;;14.58;8.95;;;;;;;3.26;67.03;101925.27;1760177;81;21507;-56
2022/11/29 09:44:17;;;;;;;11.55;4.60;;;;;;;3.26;66.94;101928.30;1725329;82;21640;-56
2022/11/29 09:47:26;;;;;;;14.05;8.65;;;;;;;3.31;66.94;101922.53;1752638;80;21109;-56
2022/11/29 09:50:04;;;;;;;7.87;3.80;;;;;;;3.40;66.62;101923.62;1759993;81;20990;-55
2022/11/29 09:53:09;;;;;;;9.03;4.15;;;;;;;3.45;66.57;101924.36;1730895;81;21195;-57
2022/11/29 09:56:02;;;;;;;13.15;4.80;;;;;;;3.47;66.75;101922.56;1749396;80;21094;-56
2022/11/29 09:58:36;;;;;;;12.30;5.25;;;;;;;3.49;66.67;101918.62;1752972;81;21062;-55
2022/11/29 10:01:05;;;;;;;9.60;4.45;;;;;;;3.49;66.51;101922.52;1756821;81;21007;-56
2022/11/29 10:03:45;;;;;;;11.28;5.60;;;;;;;3.46;66.36;101924.77;1758145;80;21003;-55
2022/11/29 10:06:33;;;;;;;9.38;5.42;;;;;;;3.43;66.35;101925.27;1752538;81;21064;-54
2022/11/29 10:09:28;;;;;;;10.08;4.85;;;;;;;3.37;66.29;101919.78;1762922;80;20986;-55
2022/11/29 10:12:15;;;;;;;10.45;4.87;;;;;;;3.31;66.34;101926.44;1749495;81;21611;-54
2022/11/29 10:14:56;;;;;;;9.83;4.53;;;;;;;3.25;66.25;101919.65;1761641;81;21108;-63
2022/11/29 10:17:30;;;;;;;12.78;5.60;;;;;;;3.20;66.31;101928.47;1762992;79;21052;-57
2022/11/29 10:20:19;;;;;;;9.97;4.60;;;;;;;3.19;66.52;101926.75;1762191;79;21195;-63
2022/11/29 10:23:00;;;;;;;16.80;8.83;;;;;;;3.26;66.61;101928.30;1763217;79;21049;-55
2022/11/29 10:25:46;;;;;;;9.65;4.53;;;;;;;3.32;66.56;101931.60;1750725;81;21686;-56
2022/11/29 10:28:18;;;;;;;10.55;4.53;;;;;;;3.39;66.68;101927.09;1722267;82;21541;-56
2022/11/29 10:30:45;;;;;;;9.40;5.35;;;;;;;3.46;66.66;101927.38;1744886;81;21056;-56
2022/11/29 10:33:24;;;;;;;8.73;5.00;;;;;;;3.50;66.66;101933.35;1759784;81;21159;-56
2022/11/29 10:35:56;;;;;;;10.63;5.35;;;;;;;3.52;66.62;101932.86;1765022;79;21386;-56
2022/11/29 10:38:25;;;;;;;15.13;6.78;;;;;;;3.53;66.34;101930.22;1742391;81;21019;-56
2022/11/29 10:41:06;;;;;;;13.78;9.75;;;;;;;3.49;66.13;101922.52;1753498;81;21123;-56
2022/11/29 10:43:33;;;;;;;9.93;3.52;;;;;;;3.45;66.09;101924.81;1729405;81;21525;-57
2022/11/29 10:46:01;;;;;;;8.25;4.83;;;;;;;3.39;66.04;101926.26;1751888;81;22150;-56
2022/11/29 10:48:32;;;;;;;14.73;10.10;;;;;;;3.34;66.14;101926.36;1752707;81;21069;-56
2022/11/29 10:51:00;;;;;;;12.55;5.97;;;;;;;3.33;66.21;101924.67;1763564;79;20986;-56
2022/11/29 10:53:34;;;;;;;13.08;8.08;;;;;;;3.32;66.01;101924.25;1763744;80;21006;-56
2022/11/29 10:56:08;;;;;;;7.50;4.15;;;;;;;3.35;65.85;101931.53;1767773;81;21065;-56
2022/11/29 10:58:36;;;;;;;9.50;4.17;;;;;;;3.42;65.84;101932.23;1759592;81;21204;-55
2022/11/29 11:01:07;;;;;;;9.08;3.47;;;;;;;3.45;65.83;101929.56;1734657;81;21112;-56
2022/11/29 11:03:54;;;;;;;8.78;4.58;;;;;;;3.47;65.96;101934.73;1765059;81;21030;-56
2022/11/29 11:06:26;;;;;;;14.43;5.62;;;;;;;3.45;66.09;101930.02;1735729;81;21054;-57
2022/11/29 11:09:13;;;;;;;10.28;4.35;;;;;;;3.46;66.06;101932.58;1760193;81;21572;-56
2022/11/29 11:11:43;;;;;;;14.50;9.13;;;;;;;3.41;65.79;101928.36;1764812;80;21245;-56
2022/11/29 11:14:26;;;;;;;11.97;4.83;;;;;;;3.33;65.92;101933.33;1763293;81;21082;-57
2022/11/29 11:16:53;;;;;;;11.93;4.58;;;;;;;3.28;65.91;101935.19;1762632;80;21029;-56
2022/11/29 11:19:28;;;;;;;10.48;4.40;;;;;;;3.23;66.05;101929.67;1762967;79;21057;-56
2022/11/29 11:21:57;;;;;;;11.53;4.95;;;;;;;3.22;66.17;101925.37;1764591;81;21085;-56
2022/11/29 11:24:38;;;;;;;10.35;5.80;;;;;;;3.23;66.24;101938.77;1763480;81;21275;-57
2022/11/29 11:27:05;;;;;;;10.00;4.85;;;;;;;3.20;66.25;101932.38;1766826;81;21018;-56
2022/11/29 11:29:40;;;;;;;9.83;5.00;;;;;;;3.19;66.23;101928.05;1766343;80;21054;-56
2022/11/29 11:32:15;;;;;;;9.70;4.57;;;;;;;3.15;66.26;101932.02;1767436;81;21549;-57
2022/11/29 11:34:52;;;;;;;7.92;4.20;;;;;;;3.14;66.33;101929.45;1762778;81;21023;-57
2022/11/29 11:37:32;;;;;;;8.75;4.47;;;;;;;3.20;66.19;101933.22;1760920;81;21265;-56
2022/11/29 11:40:02;;;;;;;8.25;3.52;;;;;;;3.26;66.18;101922.67;1763912;81;21469;-57
2022/11/29 11:42:36;;;;;;;13.88;9.23;;;;;;;3.32;66.26;101920.35;1748755;81;21308;-56
2022/11/29 11:45:17;;;;;;;10.35;4.53;;;;;;;3.33;66.43;101923.38;1757347;79;21484;-57
2022/11/29 11:47:48;;;;;;;10.28;5.28;;;;;;;3.33;66.45;101915.57;1749279;81;21012;-56
2022/11/29 11:50:30;;;;;;;9.35;4.72;;;;;;;3.30;66.38;101915.64;1763858;81;21245;-56
2022/11/29 11:53:06;;;;;;;10.23;4.42;;;;;;;3.27;66.41;101919.61;1764873;81;21088;-56
2022/11/29 11:55:40;;;;;;;11.70;5.08;;;;;;;3.21;66.33;101918.45;1766630;81;21058;-56
2022/11/29 11:58:16;;;;;;;8.95;4.60;;;;;;;3.14;66.64;101921.23;1729133;81;21473;-56
2022/11/29 12:00:54;;;;;;;9.00;4.50;;;;;;;3.11;66.86;101910.89;1758414;81;21517;-56
2022/11/29 12:03:38;;;;;;;11.45;4.72;;;;;;;3.09;66.87;101906.60;1763470;80;22034;-56
2022/11/29 12:06:28;;;;;;;8.88;4.40;;;;;;;3.05;66.94;101903.23;1734567;81;21670;-56
2022/11/29 12:09:09;;;;;;;11.08;3.60;;;;;;;3.08;66.90;101900.55;1753351;81;21077;-56
2022/11/29 12:12:08;;;;;;;10.18;4.40;;;;;;;3.18;66.94;101902.91;1755741;81;21039;-56
2022/11/29 12:14:58;;;;;;;10.20;4.00;;;;;;;3.25;67.12;101909.24;1757638;80;21138;-56
2022/11/29 12:17:47;;;;;;;8.93;4.05;;;;;;;3.28;67.25;101905.72;1728530;81;21220;-57
2022/11/29 12:20:39;;;;;;;7.28;3.92;;;;;;;3.25;67.13;101911.84;1751265;80;21078;-56
2022/11/29 12:23:23;;;;;;;10.98;3.58;;;;;;;3.20;67.30;101910.26;1741269;81;21661;-56
2022/11/29 12:26:01;;;;;;;7.90;3.85;;;;;;;3.18;67.48;101912.89;1732793;82;21130;-58
2022/11/29 12:28:33;;;;;;;7.78;3.67;;;;;;;3.12;67.58;101920.84;1732562;82;21103;-55
2022/11/29 12:31:37;;;;;;;8.68;4.12;;;;;;;3.08;67.61;101912.26;1746751;80;21140;-55
2022/11/29 12:34:30;;;;;;;10.18;3.70;;;;;;;3.08;67.49;101915.31;1711834;81;21103;-55
2022/11/29 12:37:27;;;;;;;9.28;3.37;;;;;;;3.03;67.61;101921.92;1755477;80;21029;-56
2022/11/29 12:40:11;;;;;;;9.95;4.12;;;;;;;3.06;67.57;101920.55;1751922;81;21063;-57
2022/11/29 12:43:19;;;;;;;7.83;3.42;;;;;;;3.13;67.46;101921.27;1741694;81;21040;-56
2022/11/29 12:45:54;;;;;;;10.28;3.45;;;;;;;3.20;67.46;101920.21;1736722;81;21133;-57
2022/11/29 12:48:53;;;;;;;8.50;3.55;;;;;;;3.27;67.71;101918.31;1762990;81;21133;-57
2022/11/29 12:51:52;;;;;;;8.73;3.40;;;;;;;3.29;67.75;101917.82;1763393;81;21442;-56
2022/11/29 12:54:56;;;;;;;13.03;7.90;;;;;;;3.26;67.47;101917.47;1758095;80;21096;-57
2022/11/29 12:57:31;;;;;;;7.08;3.22;;;;;;;3.21;67.52;101911.95;1765056;81;21119;-56